Time;durP1;ratioP1;P1;durP2;ratioP2;P2;SDS_P1;SDS_P2;PMS_P1;PMS_P2;Temp;Humidity;BMP_temperature;BMP_pressure;BME280_temperature;BME280_humidity;BME280_pressure;Samples;Min_cycle;Max_cycle;Signal;HPM_P1;HPM_P2
2022/11/02 00:02:02;;;;;;;23.30;11.30;;;;;;;11.93;100.00;99975.30;105935;1294;59579;-76
2022/11/02 00:04:51;;;;;;;23.00;11.40;;;;;;;11.95;100.00;99979.13;106139;1278;59011;-76
2022/11/02 00:07:40;;;;;;;20.60;10.90;;;;;;;11.98;100.00;99981.34;106122;1283;71884;-75
2022/11/02 00:10:28;;;;;;;24.80;11.80;;;;;;;12.00;100.00;99982.23;106129;1289;66851;-76
2022/11/02 00:13:16;;;;;;;24.00;11.10;;;;;;;12.01;100.00;99980.73;106085;1288;71329;-76
2022/11/02 00:16:08;;;;;;;23.60;10.80;;;;;;;12.02;100.00;99979.23;106112;1289;57228;-76
2022/11/02 00:19:00;;;;;;;22.00;11.50;;;;;;;12.01;100.00;99983.38;106033;1288;61123;-76
2022/11/02 00:21:48;;;;;;;21.00;11.50;;;;;;;12.02;100.00;99984.98;106116;1289;74010;-75
2022/11/02 00:24:36;;;;;;;21.00;11.20;;;;;;;12.02;100.00;99987.58;106119;1288;67837;-75
2022/11/02 00:27:24;;;;;;;22.90;11.40;;;;;;;12.03;100.00;99988.63;106014;1289;71181;-76
2022/11/02 00:30:11;;;;;;;22.00;11.70;;;;;;;12.03;100.00;99991.06;106161;1281;57859;-76
2022/11/02 00:32:59;;;;;;;20.90;11.20;;;;;;;12.04;100.00;99991.35;106120;1281;60223;-75
2022/11/02 00:35:47;;;;;;;22.10;11.00;;;;;;;12.04;100.00;99994.36;106100;1289;73959;-76
2022/11/02 00:38:35;;;;;;;21.70;10.70;;;;;;;12.04;100.00;99992.98;106121;1289;67679;-74
2022/11/02 00:41:23;;;;;;;22.60;10.60;;;;;;;12.02;100.00;99994.86;106088;1288;72412;-76
2022/11/02 00:44:11;;;;;;;22.70;11.00;;;;;;;12.01;100.00;99998.33;106101;1285;59477;-76
2022/11/02 00:46:58;;;;;;;18.80;9.20;;;;;;;12.02;100.00;99999.17;105998;1292;61244;-75
2022/11/02 00:49:46;;;;;;;19.50;9.60;;;;;;;12.00;100.00;99999.30;106079;1289;71672;-75
2022/11/02 00:52:34;;;;;;;22.60;9.90;;;;;;;11.99;100.00;100001.91;106133;1289;67726;-76
2022/11/02 00:55:22;;;;;;;22.40;10.30;;;;;;;11.98;100.00;99999.52;106119;1291;73647;-75
2022/11/02 00:58:10;;;;;;;19.70;9.00;;;;;;;11.95;100.00;100002.60;106058;1281;57416;-75
2022/11/02 01:01:06;;;;;;;19.70;9.10;;;;;;;11.93;100.00;100004.54;106133;1289;60022;-75
2022/11/02 01:03:56;;;;;;;20.70;8.90;;;;;;;11.90;100.00;100006.48;106037;1289;73201;-75
2022/11/02 01:06:45;;;;;;;23.20;9.60;;;;;;;11.88;100.00;100012.04;106131;1288;65453;-75
2022/11/02 01:09:34;;;;;;;19.80;9.60;;;;;;;11.85;100.00;100017.29;105900;1288;73676;-75
2022/11/02 01:12:23;;;;;;;19.50;9.10;;;;;;;11.82;100.00;100021.20;106130;1287;58319;-76
2022/11/02 01:15:11;;;;;;;24.00;9.40;;;;;;;11.80;100.00;100019.98;106120;1289;61327;-75
2022/11/02 01:17:58;;;;;;;20.70;9.50;;;;;;;11.77;100.00;100025.42;106123;1289;72053;-75
2022/11/02 01:20:47;;;;;;;21.00;9.40;;;;;;;11.74;100.00;100027.61;106121;1282;66758;-75
2022/11/02 01:23:37;;;;;;;19.30;9.10;;;;;;;11.71;100.00;100029.27;106118;1289;71004;-76
2022/11/02 01:26:24;;;;;;;22.50;9.80;;;;;;;11.67;100.00;100032.98;106020;1282;60396;-77
2022/11/02 01:29:12;;;;;;;19.50;9.20;;;;;;;11.66;100.00;100035.91;106127;1278;58721;-75
2022/11/02 01:32:00;;;;;;;23.00;9.20;;;;;;;11.63;100.00;100033.08;106106;1296;71374;-76
2022/11/02 01:34:48;;;;;;;22.00;8.40;;;;;;;11.59;100.00;100034.12;106108;1289;67813;-75
2022/11/02 01:37:35;;;;;;;19.10;8.90;;;;;;;11.54;100.00;100028.52;106098;1281;72390;-75
2022/11/02 01:40:23;;;;;;;21.50;8.20;;;;;;;11.48;100.00;100027.42;106001;1292;60403;-76
2022/11/02 01:43:23;;;;;;;18.20;8.40;;;;;;;11.41;100.00;100024.64;106006;1289;61220;-75
2022/11/02 01:46:10;;;;;;;22.10;8.60;;;;;;;11.33;100.00;100029.00;106126;1288;71379;-74
2022/11/02 01:49:05;;;;;;;21.80;8.00;;;;;;;11.24;100.00;100026.66;106126;1289;69062;-75
2022/11/02 01:52:02;;;;;;;19.90;8.20;;;;;;;11.12;100.00;100018.94;106018;1289;73489;-77
2022/11/02 01:55:03;;;;;;;20.60;8.90;;;;;;;11.02;100.00;100014.94;106092;1296;59571;-75
2022/11/02 01:58:01;;;;;;;19.80;8.00;;;;;;;10.94;100.00;100017.05;105943;1291;58241;-75
2022/11/02 02:00:53;;;;;;;17.10;8.20;;;;;;;10.87;100.00;100013.65;106102;1281;72704;-76
2022/11/02 02:03:42;;;;;;;19.40;8.40;;;;;;;10.80;100.00;100007.83;105936;1294;67688;-75
2022/11/02 02:06:30;;;;;;;17.90;8.50;;;;;;;10.73;100.00;100012.80;106016;1290;73001;-75
2022/11/02 02:09:20;;;;;;;24.40;8.40;;;;;;;10.67;100.00;100014.52;106016;1282;59452;-76
2022/11/02 02:12:07;;;;;;;21.30;8.20;;;;;;;10.60;100.00;100006.41;106116;1287;57775;-76
2022/11/02 02:14:58;;;;;;;20.00;8.10;;;;;;;10.54;100.00;100007.02;105843;1291;72797;-76
2022/11/02 02:18:10;;;;;;;19.80;8.00;;;;;;;10.49;100.00;100005.86;105818;1290;68877;-75
2022/11/02 02:21:48;;;;;;;21.10;8.00;;;;;;;10.43;100.00;100006.86;105733;1291;72779;-75
2022/11/02 02:25:09;;;;;;;25.90;8.30;;;;;;;10.35;100.00;100010.27;105774;1294;59636;-76
2022/11/02 02:28:22;;;;;;;21.20;9.00;;;;;;;10.26;100.00;100015.92;105778;1292;59258;-76
2022/11/02 02:31:42;;;;;;;22.60;8.10;;;;;;;10.18;100.00;100011.88;105729;1300;74000;-76
2022/11/02 02:34:40;;;;;;;18.20;8.00;;;;;;;10.11;100.00;100010.52;105747;1293;69143;-76
2022/11/02 02:37:41;;;;;;;20.30;7.50;;;;;;;10.04;100.00;100013.52;105728;1294;72633;-75
2022/11/02 02:41:11;;;;;;;20.80;7.90;;;;;;;9.97;100.00;100010.83;105732;1298;59545;-76
2022/11/02 02:44:01;;;;;;;19.20;7.90;;;;;;;9.94;100.00;100014.10;105793;1296;61122;-75
2022/11/02 02:46:59;;;;;;;22.90;8.10;;;;;;;9.91;100.00;100010.62;105937;1289;73314;-75
2022/11/02 02:49:54;;;;;;;18.20;7.30;;;;;;;9.87;100.00;100012.79;106016;1289;67833;-75
2022/11/02 02:52:47;;;;;;;18.50;7.70;;;;;;;9.86;100.00;100018.41;105924;1286;73805;-75
2022/11/02 02:55:42;;;;;;;18.30;7.20;;;;;;;9.82;100.00;100022.57;106127;1288;57206;-76
2022/11/02 02:58:39;;;;;;;19.20;7.80;;;;;;;9.81;100.00;100019.51;105997;1289;61156;-75
2022/11/02 03:01:27;;;;;;;19.70;7.60;;;;;;;9.78;100.00;100018.28;106104;1287;71429;-76
2022/11/02 03:04:15;;;;;;;21.50;8.10;;;;;;;9.76;100.00;100023.26;106004;1289;66218;-76
2022/11/02 03:07:03;;;;;;;18.20;8.30;;;;;;;9.73;100.00;100027.55;106127;1287;72533;-75
2022/11/02 03:10:07;;;;;;;19.30;8.00;;;;;;;9.69;100.00;100024.58;106020;1292;59476;-75
2022/11/02 03:13:41;;;;;;;24.60;9.00;;;;;;;9.65;100.00;100023.52;106128;1289;61225;-74
2022/11/02 03:17:03;;;;;;;19.80;9.00;;;;;;;9.59;100.00;100027.17;106145;1291;73053;-75
2022/11/02 03:19:54;;;;;;;16.00;7.10;;;;;;;9.53;100.00;100034.45;106121;1281;68626;-75
2022/11/02 03:23:18;;;;;;;22.60;9.50;;;;;;;9.49;100.00;100040.60;105977;1289;72338;-74
2022/11/02 03:26:20;;;;;;;22.40;11.10;;;;;;;9.45;100.00;100044.30;106074;1289;59294;-76
2022/11/02 03:29:47;;;;;;;24.70;10.70;;;;;;;9.43;100.00;100049.41;105991;1285;61127;-74
2022/11/02 03:33:06;;;;;;;23.60;10.30;;;;;;;9.40;100.00;100051.78;105862;1291;72893;-75
2022/11/02 03:36:11;;;;;;;22.10;10.70;;;;;;;9.36;100.00;100056.40;106080;1292;68115;-74
2022/11/02 03:39:07;;;;;;;23.50;11.40;;;;;;;9.33;100.00;100056.64;105951;1287;72619;-74
2022/11/02 03:41:59;;;;;;;24.60;10.70;;;;;;;9.31;100.00;100061.04;105958;1291;59312;-75
2022/11/02 03:44:56;;;;;;;23.40;11.00;;;;;;;9.30;100.00;100066.27;106158;1289;57647;-75
2022/11/02 03:47:51;;;;;;;23.60;10.70;;;;;;;9.29;100.00;100067.77;105959;1289;74036;-75
2022/11/02 03:50:51;;;;;;;26.60;11.60;;;;;;;9.28;100.00;100069.83;106003;1290;66789;-75
2022/11/02 03:54:07;;;;;;;23.60;11.00;;;;;;;9.27;100.00;100071.77;105942;1290;72588;-76
2022/11/02 03:57:02;;;;;;;24.50;11.70;;;;;;;9.27;100.00;100072.53;106021;1290;60564;-76
2022/11/02 03:59:51;;;;;;;24.20;11.60;;;;;;;9.26;100.00;100078.63;105996;1290;60245;-76
2022/11/02 04:02:43;;;;;;;21.30;11.00;;;;;;;9.26;100.00;100078.08;106121;1289;71804;-76
2022/11/02 04:05:35;;;;;;;24.20;11.20;;;;;;;9.28;100.00;100079.70;106078;1290;66739;-76
2022/11/02 04:08:36;;;;;;;23.20;11.50;;;;;;;9.30;100.00;100075.63;106027;1292;72348;-76
2022/11/02 04:14:36;;;;;;;23.40;11.20;;;;;;;9.41;100.00;100072.24;106000;1287;58757;-75
2022/11/02 04:20:33;;;;;;;19.90;11.00;;;;;;;9.51;100.00;100064.59;105978;1283;68225;-75
2022/11/02 04:26:47;;;;;;;20.00;11.20;;;;;;;9.54;100.00;100064.73;105871;1292;59826;-75
2022/11/02 04:29:36;;;;;;;21.80;11.80;;;;;;;9.52;100.00;100062.55;106007;1290;60517;-76
2022/11/02 04:35:34;;;;;;;22.40;11.10;;;;;;;9.46;100.00;100059.63;106094;1292;67259;-75
2022/11/02 04:38:40;;;;;;;20.60;11.20;;;;;;;9.43;100.00;100062.16;106018;1288;73316;-76
2022/11/02 04:41:42;;;;;;;22.80;11.80;;;;;;;9.40;100.00;100062.91;106126;1288;58238;-75
2022/11/02 04:44:38;;;;;;;21.00;10.40;;;;;;;9.37;100.00;100061.18;106157;1293;61337;-76
2022/11/02 04:47:32;;;;;;;16.40;7.80;;;;;;;9.33;100.00;100066.20;106047;1290;72795;-76
2022/11/02 04:50:19;;;;;;;20.40;11.40;;;;;;;9.28;100.00;100063.08;106090;1287;67724;-75
2022/11/02 04:53:08;;;;;;;24.50;11.10;;;;;;;9.22;100.00;100060.67;106056;1288;72376;-76
2022/11/02 04:55:57;;;;;;;25.50;12.00;;;;;;;9.18;100.00;100060.20;106034;1292;58378;-76
2022/11/02 04:58:54;;;;;;;21.50;11.30;;;;;;;9.14;100.00;100054.45;106017;1295;60138;-76
2022/11/02 05:01:42;;;;;;;22.10;11.90;;;;;;;9.10;100.00;100056.38;105966;1289;74011;-77
2022/11/02 05:04:30;;;;;;;20.40;11.40;;;;;;;9.06;100.00;100054.35;106015;1292;68590;-76
2022/11/02 05:07:18;;;;;;;22.30;12.00;;;;;;;9.04;100.00;100055.05;106117;1288;71084;-76
2022/11/02 05:10:06;;;;;;;21.30;11.10;;;;;;;8.99;100.00;100055.92;106120;1289;60561;-76
2022/11/02 05:12:59;;;;;;;19.90;11.60;;;;;;;8.94;100.00;100055.23;106041;1292;61153;-76
2022/11/02 05:15:50;;;;;;;22.50;12.00;;;;;;;8.91;100.00;100058.80;106141;1289;73070;-76
2022/11/02 05:18:38;;;;;;;22.30;12.30;;;;;;;8.87;100.00;100060.09;105955;1295;67660;-75
2022/11/02 05:21:26;;;;;;;21.20;11.40;;;;;;;8.85;100.00;100067.33;106024;1287;72301;-76
2022/11/02 05:24:15;;;;;;;24.10;12.40;;;;;;;8.84;100.00;100067.23;105980;1291;58929;-75
2022/11/02 05:27:03;;;;;;;21.10;11.20;;;;;;;8.83;100.00;100066.23;105985;1291;60139;-77
2022/11/02 05:29:52;;;;;;;20.00;11.40;;;;;;;8.82;100.00;100073.73;106009;1289;72740;-80
2022/11/02 05:32:40;;;;;;;20.30;11.70;;;;;;;8.83;100.00;100074.91;106013;1297;66202;-76
2022/11/02 05:35:28;;;;;;;17.20;10.40;;;;;;;8.82;100.00;100078.19;106127;1288;72267;-79
2022/11/02 05:38:16;;;;;;;19.70;10.50;;;;;;;8.80;100.00;100086.23;105951;1289;59355;-81
2022/11/02 05:41:04;;;;;;;20.30;11.90;;;;;;;8.79;100.00;100084.94;106026;1288;60062;-80
2022/11/02 05:43:55;;;;;;;19.80;11.00;;;;;;;8.78;100.00;100089.95;105875;1288;72730;-79
2022/11/02 05:46:43;;;;;;;20.30;11.50;;;;;;;8.75;100.00;100097.55;105961;1287;69213;-81
2022/11/02 05:49:31;;;;;;;19.20;10.70;;;;;;;8.73;100.00;100091.90;106117;1288;70945;-82
2022/11/02 05:52:19;;;;;;;18.70;9.50;;;;;;;8.70;100.00;100091.23;106135;1281;59363;-80
2022/11/02 05:55:08;;;;;;;16.20;9.60;;;;;;;8.66;100.00;100090.91;106139;1288;58808;-81
2022/11/02 05:57:56;;;;;;;18.00;10.10;;;;;;;8.64;100.00;100091.77;106050;1289;73005;-80
2022/11/02 06:00:43;;;;;;;15.80;10.00;;;;;;;8.64;100.00;100091.11;106126;1281;67059;-80
2022/11/02 06:03:32;;;;;;;14.90;9.40;;;;;;;8.60;100.00;100093.14;106098;1288;72485;-80
2022/11/02 06:06:20;;;;;;;15.80;9.20;;;;;;;8.58;100.00;100089.40;106000;1292;59278;-79
2022/11/02 06:09:08;;;;;;;15.60;9.20;;;;;;;8.57;100.00;100083.95;106146;1289;60012;-80
2022/11/02 06:11:56;;;;;;;14.60;9.60;;;;;;;8.56;100.00;100088.45;105981;1292;71414;-77
2022/11/02 06:14:44;;;;;;;16.00;9.70;;;;;;;8.53;100.00;100085.98;106003;1289;67489;-78
2022/11/02 06:17:39;;;;;;;16.50;10.80;;;;;;;8.50;100.00;100087.59;106094;1287;72332;-79
2022/11/02 06:20:27;;;;;;;18.60;11.40;;;;;;;8.51;100.00;100088.41;106014;1292;60763;-77
2022/11/02 06:23:17;;;;;;;17.80;10.50;;;;;;;8.52;100.00;100087.27;106113;1287;57794;-77
2022/11/02 06:26:05;;;;;;;19.20;11.20;;;;;;;8.57;100.00;100085.90;106114;1289;72772;-80
2022/11/02 06:28:52;;;;;;;17.70;10.50;;;;;;;8.60;100.00;100086.77;106020;1289;66334;-78
2022/11/02 06:31:40;;;;;;;17.60;10.90;;;;;;;8.63;100.00;100090.59;106099;1281;72402;-77
2022/11/02 06:34:28;;;;;;;18.80;10.90;;;;;;;8.70;100.00;100095.29;106103;1289;58315;-76
2022/11/02 06:37:16;;;;;;;19.20;11.30;;;;;;;8.78;100.00;100095.29;106115;1287;60345;-77
2022/11/02 06:40:04;;;;;;;18.80;10.90;;;;;;;8.82;100.00;100088.04;106090;1287;72890;-77
2022/11/02 06:42:56;;;;;;;19.40;12.10;;;;;;;8.89;100.00;100094.33;106101;1287;68617;-78
2022/11/02 06:46:04;;;;;;;18.50;11.00;;;;;;;8.97;100.00;100092.91;106100;1287;71087;-78
2022/11/02 06:48:52;;;;;;;18.30;10.60;;;;;;;9.05;100.00;100093.38;106086;1278;59356;-78
2022/11/02 06:51:40;;;;;;;19.20;11.30;;;;;;;9.13;100.00;100095.48;106114;1289;60037;-80
2022/11/02 06:54:28;;;;;;;24.20;14.40;;;;;;;9.24;100.00;100092.41;106131;1289;71414;-79
2022/11/02 06:57:15;;;;;;;22.80;14.20;;;;;;;9.36;100.00;100093.09;105998;1290;66737;-79
2022/11/02 07:00:16;;;;;;;20.90;12.90;;;;;;;9.48;100.00;100086.05;106121;1288;72397;-78
2022/11/02 07:03:10;;;;;;;19.90;13.10;;;;;;;9.61;100.00;100084.05;105972;1291;60169;-79
2022/11/02 07:05:58;;;;;;;24.40;14.80;;;;;;;9.69;100.00;100087.38;106111;1288;61158;-77
2022/11/02 07:08:46;;;;;;;21.30;12.30;;;;;;;9.72;100.00;100088.92;105910;1289;73411;-77
2022/11/02 07:11:34;;;;;;;22.30;13.60;;;;;;;9.88;100.00;100086.88;106108;1289;68565;-78
2022/11/02 07:14:22;;;;;;;20.90;11.90;;;;;;;10.02;100.00;100088.11;106104;1287;70271;-77
2022/11/02 07:17:10;;;;;;;19.60;12.00;;;;;;;10.19;100.00;100085.95;106092;1289;59267;-79
2022/11/02 07:19:57;;;;;;;19.20;11.30;;;;;;;10.40;100.00;100089.02;106089;1288;61339;-77
2022/11/02 07:22:58;;;;;;;24.50;14.80;;;;;;;10.55;100.00;100087.32;106024;1287;73215;-77
2022/11/02 07:25:46;;;;;;;23.50;13.00;;;;;;;10.67;100.00;100087.63;105934;1291;67628;-78
2022/11/02 07:28:36;;;;;;;30.60;17.90;;;;;;;10.80;100.00;100096.36;106071;1288;72482;-78
2022/11/02 07:31:24;;;;;;;20.10;11.50;;;;;;;10.92;100.00;100093.14;106079;1289;59479;-77
2022/11/02 07:34:13;;;;;;;30.70;19.40;;;;;;;11.13;100.00;100089.89;106107;1285;58683;-79
2022/11/02 07:37:03;;;;;;;23.20;13.40;;;;;;;11.33;99.14;100090.07;106078;1289;73962;-77
2022/11/02 07:39:51;;;;;;;23.30;13.30;;;;;;;11.49;99.17;100089.48;106087;1288;68572;-76
2022/11/02 07:42:44;;;;;;;22.20;13.20;;;;;;;11.58;97.82;100084.50;106099;1288;71071;-79
2022/11/02 07:45:32;;;;;;;24.20;13.40;;;;;;;11.45;96.95;100089.14;105995;1295;57190;-78
2022/11/02 07:48:20;;;;;;;23.30;12.60;;;;;;;11.39;96.21;100087.23;106000;1287;60104;-78
2022/11/02 07:51:10;;;;;;;24.20;13.60;;;;;;;11.43;95.42;100082.52;106108;1289;73079;-79
2022/11/02 07:53:59;;;;;;;23.70;13.50;;;;;;;11.48;96.27;100083.34;106084;1280;68871;-78
2022/11/02 07:56:47;;;;;;;20.90;12.00;;;;;;;11.48;94.56;100086.55;106065;1289;73440;-78
2022/11/02 07:59:35;;;;;;;19.40;10.20;;;;;;;11.45;93.89;100084.52;106089;1281;58130;-78
2022/11/02 08:02:23;;;;;;;20.90;12.30;;;;;;;11.46;94.00;100077.00;106101;1288;60710;-78
2022/11/02 08:05:11;;;;;;;20.20;10.80;;;;;;;11.59;94.18;100080.72;106099;1289;71807;-77
2022/11/02 08:08:05;;;;;;;18.00;11.00;;;;;;;11.50;93.02;100080.18;106081;1281;68756;-79
2022/11/02 08:10:53;;;;;;;16.60;10.00;;;;;;;11.37;93.49;100084.96;105992;1289;72420;-77
2022/11/02 08:13:41;;;;;;;19.00;11.00;;;;;;;11.31;94.22;100086.69;106048;1289;59874;-77
2022/11/02 08:16:29;;;;;;;18.20;10.90;;;;;;;11.41;95.24;100093.13;106095;1281;61123;-78
2022/11/02 08:19:17;;;;;;;19.30;11.00;;;;;;;11.61;94.82;100088.94;106096;1288;74032;-77
2022/11/02 08:22:05;;;;;;;17.60;11.00;;;;;;;11.77;93.70;100096.16;106110;1288;66384;-76
2022/11/02 08:24:52;;;;;;;17.90;10.60;;;;;;;11.89;93.13;100095.83;106094;1288;71742;-77
2022/11/02 08:27:40;;;;;;;25.00;16.10;;;;;;;12.10;92.42;100092.76;106079;1288;59661;-76
2022/11/02 08:30:30;;;;;;;18.70;10.70;;;;;;;12.34;91.82;100090.73;106115;1282;59025;-78
2022/11/02 08:33:19;;;;;;;19.10;11.50;;;;;;;12.48;90.29;100091.11;106076;1289;74261;-77
2022/11/02 08:36:07;;;;;;;16.60;10.40;;;;;;;12.61;88.05;100090.59;106101;1288;66556;-75
2022/11/02 08:38:58;;;;;;;15.60;9.40;;;;;;;12.72;88.04;100090.37;106113;1289;71411;-74
2022/11/02 08:41:46;;;;;;;16.50;9.40;;;;;;;13.14;87.25;100082.94;106096;1289;59440;-74
2022/11/02 08:44:34;;;;;;;18.10;10.20;;;;;;;13.96;84.07;100077.83;106098;1281;60062;-76
2022/11/02 08:47:29;;;;;;;16.90;9.80;;;;;;;14.77;79.60;100075.70;106116;1290;72937;-76
2022/11/02 08:50:17;;;;;;;19.10;10.70;;;;;;;15.86;76.13;100072.59;106092;1288;66977;-75
2022/11/02 08:53:06;;;;;;;21.90;12.10;;;;;;;16.41;71.53;100070.17;106074;1289;73872;-74
2022/11/02 08:55:57;;;;;;;17.70;10.40;;;;;;;16.60;68.67;100069.65;106099;1289;58272;-75
2022/11/02 08:58:45;;;;;;;17.80;10.20;;;;;;;16.80;66.56;100071.53;105953;1292;59222;-75
2022/11/02 09:01:33;;;;;;;20.90;12.30;;;;;;;16.55;67.16;100069.99;106112;1282;74409;-75
2022/11/02 09:04:21;;;;;;;16.80;11.10;;;;;;;17.08;67.60;100062.77;106084;1289;67889;-77
2022/11/02 09:07:09;;;;;;;18.00;10.10;;;;;;;17.34;65.58;100062.30;106092;1281;72256;-76
2022/11/02 09:09:57;;;;;;;16.10;10.10;;;;;;;18.02;63.25;100059.86;106096;1289;57245;-76
2022/11/02 09:12:45;;;;;;;16.30;10.10;;;;;;;18.47;60.34;100062.64;106116;1296;59111;-75
2022/11/02 09:15:35;;;;;;;17.70;9.50;;;;;;;19.44;59.72;100058.80;106103;1289;73097;-76
2022/11/02 09:18:23;;;;;;;16.30;9.60;;;;;;;20.80;56.53;100053.79;106136;1288;67571;-76
2022/11/02 09:21:11;;;;;;;14.40;9.80;;;;;;;22.03;52.79;100047.91;106075;1289;72609;-73
2022/11/02 09:23:59;;;;;;;13.40;9.00;;;;;;;23.17;50.04;100046.61;106093;1287;58079;-72
2022/11/02 09:26:48;;;;;;;17.20;9.60;;;;;;;24.24;47.54;100041.41;106126;1283;59215;-75
2022/11/02 09:29:35;;;;;;;18.40;9.90;;;;;;;24.97;43.34;100040.19;106106;1288;73340;-77
2022/11/02 09:32:23;;;;;;;15.20;9.00;;;;;;;25.42;40.77;100033.77;106106;1289;68022;-76
2022/11/02 09:35:12;;;;;;;14.10;8.40;;;;;;;25.94;40.21;100030.47;105967;1292;73509;-75
2022/11/02 09:38:00;;;;;;;13.90;8.10;;;;;;;26.08;37.94;100027.20;105990;1288;57635;-75
2022/11/02 09:41:07;;;;;;;13.30;6.50;;;;;;;26.37;38.41;100023.08;106096;1289;60061;-76
2022/11/02 09:44:11;;;;;;;13.50;6.90;;;;;;;26.21;37.75;100024.90;106093;1296;73611;-75
2022/11/02 09:47:01;;;;;;;12.20;6.60;;;;;;;26.49;37.12;100022.55;106011;1290;67595;-76
2022/11/02 09:50:25;;;;;;;11.90;7.00;;;;;;;26.90;36.43;100021.30;106036;1289;72494;-75
2022/11/02 09:53:31;;;;;;;12.90;7.10;;;;;;;26.51;35.84;100014.96;106104;1281;57239;-75
2022/11/02 09:56:19;;;;;;;13.40;7.60;;;;;;;26.93;36.81;100010.58;106114;1281;60554;-75
2022/11/02 09:59:16;;;;;;;12.80;6.90;;;;;;;27.49;35.53;100010.88;106117;1289;72781;-76
2022/11/02 10:02:25;;;;;;;12.80;6.20;;;;;;;27.74;34.88;100009.20;106136;1289;66259;-75
2022/11/02 10:05:55;;;;;;;11.10;5.90;;;;;;;28.01;33.77;100005.83;106083;1289;72432;-74
2022/11/02 10:09:27;;;;;;;12.90;6.10;;;;;;;28.16;32.60;100005.47;106020;1290;57203;-75
2022/11/02 10:12:34;;;;;;;12.10;5.40;;;;;;;27.74;33.36;99999.50;106141;1288;60094;-76
2022/11/02 10:15:48;;;;;;;13.90;5.50;;;;;;;27.81;33.44;99996.19;105291;1289;1001588;-75
2022/11/02 10:18:39;;;;;;;13.10;5.00;;;;;;;-34.89;19.39;59997.74;100600;1287;5658462;-75
2022/11/02 10:21:37;;;;;;;10.60;5.00;;;;;;;-34.76;20.19;59997.88;104384;1292;1044052;-78
2022/11/02 10:24:37;;;;;;;10.40;4.30;;;;;;;28.02;34.02;100000.31;106006;1289;60318;-76
2022/11/02 10:27:30;;;;;;;10.70;4.80;;;;;;;28.88;32.40;99995.73;106083;1295;74122;-77
2022/11/02 10:30:20;;;;;;;9.60;4.10;;;;;;;29.06;30.83;99987.31;105961;1284;69357;-76
2022/11/02 10:33:18;;;;;;;9.90;4.90;;;;;;;28.85;30.62;99985.70;106091;1289;72684;-77
2022/11/02 10:36:31;;;;;;;11.20;4.60;;;;;;;29.11;31.63;99984.03;106097;1296;59276;-76
2022/11/02 10:40:09;;;;;;;11.70;4.80;;;;;;;29.07;30.70;99980.98;106025;1284;61547;-77
2022/11/02 10:43:21;;;;;;;9.60;4.20;;;;;;;27.55;32.48;99977.50;106025;1292;72005;-76
2022/11/02 10:46:43;;;;;;;10.00;4.20;;;;;;;27.70;32.78;99972.85;106110;1288;68572;-76
2022/11/02 10:50:16;;;;;;;10.10;3.30;;;;;;;27.36;32.07;99973.60;105530;1297;74041;-76
2022/11/02 10:53:11;;;;;;;10.60;4.10;;;;;;;27.41;31.72;99968.16;105529;1297;59148;-78
2022/11/02 10:56:23;;;;;;;12.40;4.10;;;;;;;27.32;32.34;99964.30;105487;1298;60670;-76
2022/11/02 10:59:16;;;;;;;10.10;4.00;;;;;;;27.00;32.65;99960.76;105559;1298;72946;-76
2022/11/02 11:02:12;;;;;;;8.50;3.50;;;;;;;27.06;33.32;99954.92;105458;1298;68228;-77
2022/11/02 11:05:13;;;;;;;11.20;4.10;;;;;;;27.12;33.17;99952.67;105534;1298;73931;-76
2022/11/02 11:08:01;;;;;;;10.60;4.00;;;;;;;26.77;33.06;99952.40;105530;1290;57272;-76
2022/11/02 11:10:50;;;;;;;10.50;3.80;;;;;;;26.80;33.38;99957.08;105537;1298;60426;-76
2022/11/02 11:13:39;;;;;;;14.70;4.50;;;;;;;26.60;33.01;99960.26;105541;1291;73232;-77
2022/11/02 11:16:54;;;;;;;10.70;4.10;;;;;;;-97.10;5.85;19991.88;103506;1282;1002381;-76
2022/11/02 11:19:55;;;;;;;12.50;4.40;;;;;;;-128.00;-1.00;-1.00;102935;1282;1013614;-77
2022/11/02 11:22:43;;;;;;;12.70;4.60;;;;;;;-128.00;-1.00;-1.00;102870;1281;1010291;-76
2022/11/02 11:25:31;;;;;;;10.80;4.10;;;;;;;-128.00;-1.00;-1.00;102857;1296;1011312;-76
2022/11/02 11:28:55;;;;;;;12.20;4.70;;;;;;;-128.00;-1.00;-1.00;103477;1281;1013071;-76
2022/11/02 11:31:43;;;;;;;13.10;4.80;;;;;;;-128.00;-1.00;-1.00;103451;1272;1012638;-75
2022/11/02 11:34:35;;;;;;;14.60;5.80;;;;;;;-128.00;-1.00;-1.00;103478;1281;1012954;-76
2022/11/02 11:37:24;;;;;;;13.20;5.20;;;;;;;-128.00;-1.00;-1.00;103421;1273;1009352;-75
2022/11/02 11:40:21;;;;;;;14.10;5.70;;;;;;;-128.00;-1.00;-1.00;103511;1289;1010380;-77
2022/11/02 11:43:14;;;;;;;16.40;6.10;;;;;;;-128.00;-1.00;-1.00;103484;1288;1013163;-77
2022/11/02 11:46:06;;;;;;;15.00;6.60;;;;;;;-128.00;-1.00;-1.00;103376;1280;1012455;-76
2022/11/02 11:48:58;;;;;;;14.40;6.70;;;;;;;-128.00;-1.00;-1.00;103339;1269;1013800;-77
2022/11/02 11:51:51;;;;;;;16.00;6.40;;;;;;;-128.00;-1.00;-1.00;103495;1265;1010157;-77
2022/11/02 11:54:39;;;;;;;16.10;6.60;;;;;;;-128.00;-1.00;-1.00;103508;1273;1011253;-76
2022/11/02 11:57:30;;;;;;;16.90;8.10;;;;;;;-128.00;-1.00;-1.00;103398;1276;1012588;-77
2022/11/02 12:00:28;;;;;;;17.30;8.10;;;;;;;-128.00;-1.00;-1.00;103395;1283;1012143;-75
2022/11/02 12:03:15;;;;;;;14.40;7.10;;;;;;;-128.00;-1.00;-1.00;103494;1272;1012707;-76
2022/11/02 12:06:59;;;;;;;16.00;7.60;;;;;;;-128.00;-1.00;-1.00;103465;1265;1009766;-76
2022/11/02 12:10:12;;;;;;;15.00;7.40;;;;;;;-128.00;-1.00;-1.00;102670;1288;1010384;-75
2022/11/02 12:13:18;;;;;;;18.70;7.70;;;;;;;-128.00;-1.00;-1.00;102855;1291;1012548;-77
2022/11/02 12:16:16;;;;;;;15.60;7.50;;;;;;;-128.00;-1.00;-1.00;102854;1289;1012586;-77
2022/11/02 12:19:39;;;;;;;16.00;7.90;;;;;;;-128.00;-1.00;-1.00;102860;1297;1013298;-77
2022/11/02 12:23:04;;;;;;;17.00;8.00;;;;;;;-128.00;-1.00;-1.00;102868;1281;1010896;-75
2022/11/02 12:26:27;;;;;;;16.00;7.50;;;;;;;-128.00;-1.00;-1.00;102874;1290;1011077;-75
2022/11/02 12:29:37;;;;;;;17.10;7.10;;;;;;;-128.00;-1.00;-1.00;102879;1290;1012459;-74
2022/11/02 12:33:14;;;;;;;20.60;8.10;;;;;;;-128.00;-1.00;-1.00;102884;1283;1012290;-77
2022/11/02 12:36:22;;;;;;;21.00;8.10;;;;;;;-128.00;-1.00;-1.00;102873;1273;1012203;-77
2022/11/02 12:39:52;;;;;;;18.50;7.60;;;;;;;-128.00;-1.00;-1.00;102872;1297;1009976;-77
2022/11/02 12:43:03;;;;;;;17.50;7.80;;;;;;;-128.00;-1.00;-1.00;102890;1297;1011282;-77
2022/11/02 12:46:19;;;;;;;17.80;7.50;;;;;;;-128.00;-1.00;-1.00;102888;1291;1012955;-76
2022/11/02 12:49:40;;;;;;;16.90;7.80;;;;;;;-128.00;-1.00;-1.00;103502;1286;1011704;-76
2022/11/02 12:52:56;;;;;;;13.70;6.80;;;;;;;-128.00;-1.00;-1.00;103494;1289;1013108;-76
2022/11/02 12:55:50;;;;;;;19.20;8.00;;;;;;;-128.00;-1.00;-1.00;103461;1289;1009832;-77
2022/11/02 12:58:40;;;;;;;18.80;7.70;;;;;;;-128.00;-1.00;-1.00;103407;1276;1011335;-76
2022/11/02 13:01:39;;;;;;;16.80;7.50;;;;;;;-128.00;-1.00;-1.00;103391;1283;1012680;-76
2022/11/02 13:04:32;;;;;;;13.30;7.00;;;;;;;-128.00;-1.00;-1.00;103398;1273;1012580;-77
2022/11/02 13:07:38;;;;;;;16.20;7.30;;;;;;;-128.00;-1.00;-1.00;103401;1280;1013008;-77
2022/11/02 13:10:45;;;;;;;17.00;7.20;;;;;;;-128.00;-1.00;-1.00;103344;1276;1010437;-77
2022/11/02 13:13:50;;;;;;;12.60;6.60;;;;;;;-128.00;-1.00;-1.00;103355;1289;1010613;-76
2022/11/02 13:16:43;;;;;;;14.60;6.50;;;;;;;-128.00;-1.00;-1.00;103434;1275;1014280;-76
2022/11/02 13:19:43;;;;;;;13.50;7.30;;;;;;;-128.00;-1.00;-1.00;103522;1273;1012425;-77
2022/11/02 13:22:36;;;;;;;16.10;7.00;;;;;;;-128.00;-1.00;-1.00;103336;1276;1013349;-76
2022/11/02 13:25:37;;;;;;;13.30;6.20;;;;;;;-128.00;-1.00;-1.00;103281;1280;1010019;-77